createdAt,value
2018-10-16T00:01:26.455Z,98128.84
2018-10-16T00:03:57.059Z,98132.41
2018-10-16T00:06:27.988Z,98133.80
2018-10-16T00:09:07.237Z,98133.88
2018-10-16T00:11:38.544Z,98138.74
2018-10-16T00:14:09.175Z,98140.02
2018-10-16T00:16:39.855Z,98137.40
2018-10-16T00:19:10.457Z,98143.34
2018-10-16T00:21:41.084Z,98142.14
2018-10-16T00:24:11.748Z,98133.70
2018-10-16T00:26:42.316Z,98134.75
2018-10-16T00:29:12.900Z,98132.51
2018-10-16T00:31:43.487Z,98135.84
2018-10-16T00:34:14.097Z,98135.61
2018-10-16T00:36:44.669Z,98139.75
2018-10-16T00:39:16.424Z,98140.95
2018-10-16T00:41:52.296Z,98140.61
2018-10-16T00:44:22.915Z,98140.72
2018-10-16T00:46:53.856Z,98140.72
2018-10-16T00:49:24.497Z,98142.97
2018-10-16T00:51:55.093Z,98142.59
2018-10-16T00:54:25.698Z,98141.28
2018-10-16T00:56:56.304Z,98146.52
2018-10-16T00:59:26.931Z,98149.50
2018-10-16T01:01:57.610Z,98143.78
2018-10-16T01:04:28.254Z,98147.81
2018-10-16T01:06:59.411Z,98150.99
2018-10-16T01:09:30.003Z,98152.84
2018-10-16T01:12:00.663Z,98152.62
2018-10-16T01:14:31.528Z,98151.77
2018-10-16T01:17:02.180Z,98153.07
2018-10-16T01:19:33.128Z,98148.59
2018-10-16T01:22:04.660Z,98149.64
2018-10-16T01:24:35.299Z,98154.15
2018-10-16T01:27:06.012Z,98152.20
2018-10-16T01:29:36.915Z,98155.63
2018-10-16T01:32:07.572Z,98159.53
2018-10-16T01:34:38.192Z,98158.23
2018-10-16T01:37:08.880Z,98156.44
2018-10-16T01:39:39.507Z,98159.48
2018-10-16T01:42:10.109Z,98151.28
2018-10-16T01:44:41.016Z,98158.51
2018-10-16T01:47:11.636Z,98148.77
2018-10-16T01:49:42.348Z,98152.89
2018-10-16T01:52:12.970Z,98148.68
2018-10-16T01:54:43.586Z,98158.97
2018-10-16T01:57:14.148Z,98159.05
2018-10-16T01:59:45.123Z,98160.80
2018-10-16T02:02:15.757Z,98170.63
2018-10-16T02:04:46.584Z,98168.73
2018-10-16T02:07:17.160Z,98176.56
2018-10-16T02:09:47.767Z,98172.64
2018-10-16T02:12:18.603Z,98169.74
2018-10-16T02:14:49.537Z,98175.02
2018-10-16T02:17:20.236Z,98174.76
2018-10-16T02:19:50.866Z,98171.47
2018-10-16T02:22:21.455Z,98172.89
2018-10-16T02:24:52.040Z,98176.52
2018-10-16T02:27:22.637Z,98173.91
2018-10-16T02:29:53.236Z,98183.70
2018-10-16T02:32:23.828Z,98180.50
2018-10-16T02:34:54.414Z,98183.39
2018-10-16T02:37:25.246Z,98182.29
2018-10-16T02:39:55.845Z,98184.42
2018-10-16T02:42:26.668Z,98186.65
2018-10-16T02:44:57.296Z,98186.65
2018-10-16T02:47:28.131Z,98187.34
2018-10-16T02:49:58.716Z,98192.66
2018-10-16T02:52:29.531Z,98191.94
2018-10-16T02:55:00.140Z,98185.72
2018-10-16T02:57:30.752Z,98193.75
2018-10-16T03:00:01.366Z,98196.08
2018-10-16T03:02:32.144Z,98201.13
2018-10-16T03:05:03.025Z,98200.88
2018-10-16T03:07:33.540Z,98208.08
2018-10-16T03:10:04.615Z,98200.36
2018-10-16T03:12:35.195Z,98206.02
2018-10-16T03:15:09.804Z,98208.83
2018-10-16T03:17:40.670Z,98207.91
2018-10-16T03:20:12.175Z,98212.73
2018-10-16T03:22:42.747Z,98211.09
2018-10-16T03:25:13.630Z,98214.92
2018-10-16T03:27:44.216Z,98218.01
2018-10-16T03:30:14.847Z,98217.05
2018-10-16T03:32:45.442Z,98216.70
2018-10-16T03:35:16.043Z,98227.28
2018-10-16T03:37:46.647Z,98224.42
2018-10-16T03:40:17.489Z,98230.09
2018-10-16T03:42:48.324Z,98234.20
2018-10-16T03:45:18.934Z,98230.69
2018-10-16T03:47:49.544Z,98233.05
2018-10-16T03:50:20.111Z,98234.27
2018-10-16T03:52:50.752Z,98233.98
2018-10-16T03:55:21.327Z,98241.27
2018-10-16T03:57:51.952Z,98236.83
2018-10-16T04:00:22.576Z,98236.45
2018-10-16T04:02:53.151Z,98235.29
2018-10-16T04:05:23.795Z,98238.63
2018-10-16T04:07:54.481Z,98236.42
2018-10-16T04:10:25.071Z,98238.73
2018-10-16T04:12:55.704Z,98236.13
2018-10-16T04:15:26.574Z,98240.04
2018-10-16T04:17:57.196Z,98243.47
2018-10-16T04:20:27.861Z,98240.33
2018-10-16T04:22:58.475Z,98244.96
2018-10-16T04:25:29.271Z,98252.78
2018-10-16T04:28:00.215Z,98252.59
2018-10-16T04:30:30.820Z,98259.77
2018-10-16T04:33:01.484Z,98262.47
2018-10-16T04:35:32.047Z,98261.20
2018-10-16T04:38:02.959Z,98264.81
2018-10-16T04:40:33.528Z,98265.58
2018-10-16T04:43:04.240Z,98256.17
2018-10-16T04:45:34.890Z,98258.77
2018-10-16T04:48:06.115Z,98263.88
2018-10-16T04:50:36.687Z,98262.86
2018-10-16T04:53:07.553Z,98272.83
2018-10-16T04:55:38.092Z,98269.18
2018-10-16T04:58:08.696Z,98279.98
2018-10-16T05:00:39.287Z,98277.28
2018-10-16T05:03:09.894Z,98275.89
2018-10-16T05:05:40.843Z,98278.39
2018-10-16T05:08:11.391Z,98280.52
2018-10-16T05:10:42.031Z,98274.97
2018-10-16T05:13:12.653Z,98283.70
2018-10-16T05:15:43.574Z,98278.39
2018-10-16T05:18:14.174Z,98278.30
2018-10-16T05:20:44.863Z,98278.69
2018-10-16T05:23:15.536Z,98278.39
2018-10-16T05:25:46.598Z,98276.83
2018-10-16T05:28:17.159Z,98278.50
2018-10-16T05:30:47.907Z,98285.20
2018-10-16T05:33:18.904Z,98287.80
2018-10-16T05:35:49.496Z,98288.91
2018-10-16T05:38:20.072Z,98292.63
2018-10-16T05:40:50.685Z,98294.47
2018-10-16T05:43:21.255Z,98299.23
2018-10-16T05:45:51.840Z,98303.23
2018-10-16T05:48:22.528Z,98303.41
2018-10-16T05:50:53.195Z,98307.67
2018-10-16T05:53:23.831Z,98301.84
2018-10-16T05:56:06.275Z,98304.70
2018-10-16T05:58:36.871Z,98303.39
2018-10-16T06:01:07.859Z,98307.78
2018-10-16T06:03:38.485Z,98308.98
2018-10-16T06:06:09.276Z,98313.19
2018-10-16T06:08:39.876Z,98314.47
2018-10-16T06:11:10.451Z,98324.14
2018-10-16T06:13:41.047Z,98322.53
2018-10-16T06:16:11.465Z,98322.19
2018-10-16T06:18:42.225Z,98322.53
2018-10-16T06:21:12.831Z,98324.17
2018-10-16T06:23:43.670Z,98324.51
2018-10-16T06:26:14.276Z,98322.77
2018-10-16T06:28:45.079Z,98318.54
2018-10-16T06:31:15.735Z,98329.83
2018-10-16T06:33:46.347Z,98329.65
2018-10-16T06:36:17.167Z,98337.42
2018-10-16T06:38:47.757Z,98341.63
2018-10-16T06:41:18.483Z,98340.22
2018-10-16T06:43:49.410Z,98347.50
2018-10-16T06:46:20.528Z,98348.97
2018-10-16T06:48:51.504Z,98353.14
2018-10-16T06:51:22.372Z,98356.00
2018-10-16T06:53:52.934Z,98356.69
2018-10-16T06:56:23.523Z,98354.73
2018-10-16T06:58:54.314Z,98361.38
2018-10-16T07:01:24.915Z,98354.52
2018-10-16T07:03:55.479Z,98359.25
2018-10-16T07:06:26.132Z,98363.08
2018-10-16T07:08:57.086Z,98361.81
2018-10-16T07:11:27.707Z,98369.27
2018-10-16T07:13:58.327Z,98370.31
2018-10-16T07:16:29.051Z,98367.77
2018-10-16T07:18:59.656Z,98371.98
2018-10-16T07:21:30.263Z,98374.30
2018-10-16T07:24:01.158Z,98380.53
2018-10-16T07:26:31.863Z,98380.17
2018-10-16T07:29:02.886Z,98373.98
2018-10-16T07:31:33.611Z,98377.48
2018-10-16T07:34:04.485Z,98373.94
2018-10-16T07:36:35.233Z,98381.53
2018-10-16T07:39:09.637Z,98382.83
2018-10-16T07:41:40.991Z,98377.05
2018-10-16T07:44:11.838Z,98383.49
2018-10-16T07:46:42.428Z,98376.06
2018-10-16T07:49:13.034Z,98378.33
2018-10-16T07:51:43.620Z,98371.00
2018-10-16T07:54:14.459Z,98375.73
2018-10-16T07:56:45.072Z,98373.48
2018-10-16T07:59:15.755Z,98375.83
2018-10-16T08:01:46.573Z,98372.92
2018-10-16T08:04:17.192Z,98378.33
2018-10-16T08:06:48.099Z,98386.57
2018-10-16T08:09:18.934Z,98387.34
2018-10-16T08:11:50.543Z,98385.84
2018-10-16T08:14:21.860Z,98393.67
2018-10-16T08:16:52.460Z,98388.39
2018-10-16T08:19:23.271Z,98392.55
2018-10-16T08:21:53.836Z,98381.78
2018-10-16T08:24:24.431Z,98388.05
2018-10-16T08:26:55.064Z,98384.39
2018-10-16T08:29:25.853Z,98391.63
2018-10-16T08:31:56.671Z,98394.23
2018-10-16T08:34:27.263Z,98392.27
2018-10-16T08:36:57.940Z,98395.55
2018-10-16T08:39:34.734Z,98400.11
2018-10-16T08:45:28.049Z,98401.89
2018-10-16T08:48:15.348Z,98405.16
2018-10-16T08:51:02.716Z,98401.32
2018-10-16T08:53:33.545Z,98396.30
2018-10-16T08:56:04.123Z,98395.70
2018-10-16T08:58:34.704Z,98400.20
2018-10-16T09:01:05.810Z,98398.70
2018-10-16T09:03:36.571Z,98400.05
2018-10-16T09:06:07.851Z,98399.00
2018-10-16T09:08:38.484Z,98396.40
2018-10-16T09:11:09.044Z,98395.08
2018-10-16T09:13:39.647Z,98398.13
2018-10-16T09:16:10.348Z,98395.45
2018-10-16T09:18:40.945Z,98401.16
2018-10-16T09:21:11.524Z,98393.67
2018-10-16T09:23:42.110Z,98400.23
2018-10-16T09:26:13.043Z,98402.02
2018-10-16T09:28:43.683Z,98395.43
2018-10-16T09:31:14.234Z,98395.66
2018-10-16T09:33:44.880Z,98397.70
2018-10-16T09:36:15.476Z,98398.55
2018-10-16T09:38:46.119Z,98396.75
2018-10-16T09:41:17.190Z,98392.64
2018-10-16T09:43:48.048Z,98391.22
2018-10-16T09:46:18.624Z,98389.41
2018-10-16T09:48:49.207Z,98388.91
2018-10-16T09:51:19.851Z,98390.28
2018-10-16T09:53:50.462Z,98386.82
2018-10-16T09:56:21.120Z,98387.68
2018-10-16T09:58:51.715Z,98393.17
2018-10-16T10:01:27.538Z,98393.83
2018-10-16T10:03:58.109Z,98386.91
2018-10-16T10:06:28.716Z,98390.39
2018-10-16T10:08:59.288Z,98388.08
2018-10-16T10:11:30.135Z,98385.75
2018-10-16T10:14:00.796Z,98384.76
2018-10-16T10:16:31.379Z,98385.08
2018-10-16T10:19:01.976Z,98384.42
2018-10-16T10:21:32.599Z,98383.24
2018-10-16T10:24:03.210Z,98378.24
2018-10-16T10:26:33.839Z,98380.74
2018-10-16T10:29:04.700Z,98375.57
2018-10-16T10:31:35.511Z,98374.59
2018-10-16T10:34:05.928Z,98366.95
2018-10-16T10:36:36.748Z,98367.26
2018-10-16T10:39:11.045Z,98363.31
2018-10-16T10:41:42.189Z,98364.95
2018-10-16T10:44:12.839Z,98362.45
2018-10-16T10:46:43.445Z,98358.09
2018-10-16T10:49:14.075Z,98348.14
2018-10-16T10:51:44.678Z,98349.78
2018-10-16T10:54:15.299Z,98341.63
2018-10-16T10:56:45.928Z,98345.14
2018-10-16T10:59:16.700Z,98339.27
2018-10-16T11:01:47.302Z,98340.77
2018-10-16T11:04:18.139Z,98339.73
2018-10-16T11:06:48.715Z,98339.69
2018-10-16T11:09:19.335Z,98335.19
2018-10-16T11:11:57.060Z,98337.31
2018-10-16T11:14:28.444Z,98329.11
2018-10-16T11:16:59.041Z,98330.59
2018-10-16T11:19:29.758Z,98327.28
2018-10-16T11:22:00.461Z,98329.42
2018-10-16T11:24:30.835Z,98331.05
2018-10-16T11:27:01.473Z,98329.88
2018-10-16T11:29:32.422Z,98331.33
2018-10-16T11:32:03.035Z,98328.83
2018-10-16T11:34:33.620Z,98330.27
2018-10-16T11:37:04.340Z,98324.29
2018-10-16T11:39:35.106Z,98316.43
2018-10-16T11:42:06.232Z,98314.44
2018-10-16T11:44:37.097Z,98319.25
2018-10-16T11:47:07.761Z,98315.02
2018-10-16T11:49:38.371Z,98313.84
2018-10-16T11:52:09.271Z,98313.78
2018-10-16T11:54:39.999Z,98312.09
2018-10-16T11:57:10.679Z,98314.94
2018-10-16T11:59:41.288Z,98307.98
2018-10-16T12:02:12.025Z,98308.23
2018-10-16T12:04:42.736Z,98309.84
2018-10-16T12:07:13.842Z,98309.87
2018-10-16T12:09:44.641Z,98305.88
2018-10-16T12:12:15.479Z,98304.06
2018-10-16T12:14:46.173Z,98305.52
2018-10-16T12:17:38.407Z,98300.86
2018-10-16T12:20:12.081Z,98302.98
2018-10-16T12:22:42.744Z,98299.81
2018-10-16T12:25:13.452Z,98298.06
2018-10-16T12:27:43.948Z,98299.09
2018-10-16T12:30:14.580Z,98298.73
2018-10-16T12:32:45.195Z,98301.85
2018-10-16T12:35:15.764Z,98302.64
2018-10-16T12:37:46.415Z,98300.44
2018-10-16T12:40:17.199Z,98299.89
2018-10-16T12:42:47.940Z,98298.38
2018-10-16T12:45:18.689Z,98300.95
2018-10-16T12:47:49.270Z,98293.70
2018-10-16T12:50:19.932Z,98293.73
2018-10-16T12:52:50.784Z,98290.25
2018-10-16T12:55:21.469Z,98297.91
2018-10-16T12:57:52.080Z,98286.25
2018-10-16T13:00:22.712Z,98285.25
2018-10-16T13:02:53.350Z,98288.73
2018-10-16T13:05:24.118Z,98296.03
2018-10-16T13:07:54.750Z,98290.70
2018-10-16T13:10:25.571Z,98292.52
2018-10-16T13:12:56.403Z,98289.16
2018-10-16T13:15:27.027Z,98291.97
2018-10-16T13:17:57.652Z,98287.45
2018-10-16T13:20:28.240Z,98286.52
2018-10-16T13:22:58.970Z,98290.34
2018-10-16T13:25:29.707Z,98288.64
2018-10-16T13:28:00.396Z,98285.94
2018-10-16T13:30:31.191Z,98283.79
2018-10-16T13:33:01.808Z,98287.78
2018-10-16T13:35:32.364Z,98286.64
2018-10-16T13:38:03.075Z,98282.48
2018-10-16T13:40:33.832Z,98283.30
2018-10-16T13:43:04.528Z,98284.34
2018-10-16T13:45:35.362Z,98284.34
2018-10-16T13:48:06.827Z,98288.00
2018-10-16T13:50:37.440Z,98283.67
2018-10-16T13:53:08.295Z,98285.00
2018-10-16T13:55:38.868Z,98281.00
2018-10-16T13:58:09.464Z,98279.19
2018-10-16T14:00:40.614Z,98283.19
2018-10-16T14:03:11.226Z,98286.67
2018-10-16T14:05:42.803Z,98287.00
2018-10-16T14:08:13.484Z,98281.67
2018-10-16T14:10:44.211Z,98284.34
2018-10-16T14:13:14.849Z,98287.00
2018-10-16T14:15:45.791Z,98286.67
2018-10-16T14:18:16.413Z,98285.34
2018-10-16T14:20:46.731Z,98282.67
2018-10-16T14:23:17.316Z,98283.55
2018-10-16T14:25:47.900Z,98277.07
2018-10-16T14:28:18.663Z,98278.89
2018-10-16T14:30:49.270Z,98280.41
2018-10-16T14:33:19.859Z,98278.44
2018-10-16T14:35:50.472Z,98282.98
2018-10-16T14:38:21.456Z,98285.02
2018-10-16T14:40:52.268Z,98284.53
2018-10-16T14:43:22.920Z,98282.59
2018-10-16T14:45:53.913Z,98283.11
2018-10-16T14:48:24.656Z,98292.63
2018-10-16T14:50:55.372Z,98287.31
2018-10-16T14:53:25.980Z,98288.08
2018-10-16T14:55:56.585Z,98288.25
2018-10-16T14:58:27.488Z,98284.13
2018-10-16T15:00:58.072Z,98295.13
2018-10-16T15:03:28.714Z,98284.16
2018-10-16T15:05:59.654Z,98283.67
2018-10-16T15:08:30.304Z,98290.20
2018-10-16T15:11:00.981Z,98286.59
2018-10-16T15:13:31.560Z,98285.44
2018-10-16T15:16:02.312Z,98288.98
2018-10-16T15:18:33.037Z,98278.86
2018-10-16T15:21:03.676Z,98277.25
2018-10-16T15:23:34.381Z,98287.77
2018-10-16T15:26:05.792Z,98280.01
2018-10-16T15:28:36.951Z,98280.54
2018-10-16T15:31:07.542Z,98280.22
2018-10-16T15:33:38.284Z,98279.12
2018-10-16T15:36:08.927Z,98278.31
2018-10-16T15:38:39.735Z,98277.18
2018-10-16T15:41:10.445Z,98281.05
2018-10-16T15:43:41.189Z,98276.05
2018-10-16T15:46:11.898Z,98276.39
2018-10-16T15:48:42.629Z,98274.74
2018-10-16T15:51:13.255Z,98282.08
2018-10-16T15:53:44.095Z,98284.75
2018-10-16T15:56:14.652Z,98286.61
2018-10-16T15:58:45.247Z,98282.66
2018-10-16T16:01:15.832Z,98285.69
2018-10-16T16:03:46.429Z,98284.74
2018-10-16T16:06:17.715Z,98280.77
2018-10-16T16:08:48.371Z,98291.92
2018-10-16T16:11:18.935Z,98298.92
2018-10-16T16:13:49.552Z,98297.29
2018-10-16T16:16:20.160Z,98297.67
2018-10-16T16:18:50.787Z,98293.72
2018-10-16T16:21:21.387Z,98305.84
2018-10-16T16:23:52.083Z,98305.70
2018-10-16T16:26:22.927Z,98305.56
2018-10-16T16:28:53.684Z,98304.91
2018-10-16T16:31:24.304Z,98306.76
2018-10-16T16:33:54.964Z,98309.91
2018-10-16T16:36:25.710Z,98312.88
2018-10-16T16:38:56.579Z,98314.02
2018-10-16T16:41:27.181Z,98314.69
2018-10-16T16:43:57.964Z,98315.86
2018-10-16T16:46:28.631Z,98314.20
2018-10-16T16:48:59.221Z,98309.21
2018-10-16T16:51:29.837Z,98317.99
2018-10-16T16:54:00.757Z,98312.69
2018-10-16T16:56:31.421Z,98317.48
2018-10-16T16:59:02.092Z,98319.62
2018-10-16T17:01:32.893Z,98315.63
2018-10-16T17:04:03.589Z,98323.23
2018-10-16T17:06:35.041Z,98325.30
2018-10-16T17:09:10.603Z,98326.80
2018-10-16T17:11:41.419Z,98323.27
2018-10-16T17:14:12.296Z,98324.73
2018-10-16T17:16:43.095Z,98329.97
2018-10-16T17:19:13.747Z,98328.30
2018-10-16T17:21:44.431Z,98339.02
2018-10-16T17:24:15.079Z,98341.48
2018-10-16T17:26:46.072Z,98345.70
2018-10-16T17:29:16.800Z,98346.48
2018-10-16T17:31:47.473Z,98342.93
2018-10-16T17:34:18.544Z,98344.20
2018-10-16T17:36:49.199Z,98345.45
2018-10-16T17:39:19.864Z,98341.42
2018-10-16T17:41:50.501Z,98353.13
2018-10-16T17:44:21.152Z,98356.19
2018-10-16T17:46:51.831Z,98358.42
2018-10-16T17:49:22.416Z,98358.01
2018-10-16T17:51:53.353Z,98361.41
2018-10-16T17:54:24.029Z,98357.05
2018-10-16T17:56:54.734Z,98361.03
2018-10-16T17:59:25.556Z,98371.30
2018-10-16T18:01:56.360Z,98370.64
2018-10-16T18:04:27.288Z,98371.08
2018-10-16T18:06:58.056Z,98378.50
2018-10-16T18:09:28.780Z,98379.63
2018-10-16T18:11:59.375Z,98384.59
2018-10-16T18:14:30.099Z,98378.96
2018-10-16T18:17:00.734Z,98382.45
2018-10-16T18:19:31.477Z,98387.95
2018-10-16T18:22:02.155Z,98383.62
2018-10-16T18:24:32.801Z,98388.42
2018-10-16T18:27:03.484Z,98386.36
2018-10-16T18:29:34.303Z,98383.52
2018-10-16T18:32:05.193Z,98379.84
2018-10-16T18:34:35.928Z,98378.05
2018-10-16T18:37:06.724Z,98377.92
2018-10-16T18:39:37.474Z,98381.05
2018-10-16T18:42:08.236Z,98380.97
2018-10-16T18:44:39.118Z,98377.15
2018-10-16T18:47:10.092Z,98372.23
2018-10-16T18:49:40.754Z,98370.78
2018-10-16T18:52:11.389Z,98374.10
2018-10-16T18:54:42.257Z,98366.05
2018-10-16T18:57:12.905Z,98368.97
2018-10-16T18:59:43.712Z,98374.38
2018-10-16T19:02:14.405Z,98375.83
2018-10-16T19:04:45.320Z,98386.51
2018-10-16T19:07:15.980Z,98385.83
2018-10-16T19:09:46.880Z,98387.41
2018-10-16T19:12:17.530Z,98393.42
2018-10-16T19:14:48.165Z,98388.56
2018-10-16T19:17:19.031Z,98392.09
2018-10-16T19:19:49.695Z,98388.69
2018-10-16T19:22:20.530Z,98386.39
2018-10-16T19:24:51.040Z,98388.25
2018-10-16T19:27:21.702Z,98395.64
2018-10-16T19:29:52.524Z,98396.08
2018-10-16T19:32:23.176Z,98400.95
2018-10-16T19:34:53.875Z,98404.52
2018-10-16T19:37:24.516Z,98400.36
2018-10-16T19:39:55.179Z,98398.55
2018-10-16T19:42:25.875Z,98403.81
2018-10-16T19:44:56.509Z,98409.45
2018-10-16T19:47:27.300Z,98405.49
2018-10-16T19:49:57.923Z,98412.70
2018-10-16T19:52:28.747Z,98414.87
2018-10-16T19:54:59.376Z,98407.75
2018-10-16T19:57:29.969Z,98407.19
2018-10-16T20:00:00.647Z,98409.59
2018-10-16T20:02:31.433Z,98401.86
2018-10-16T20:05:02.191Z,98408.20
2018-10-16T20:07:33.157Z,98406.39
2018-10-16T20:10:03.833Z,98409.16
2018-10-16T20:12:34.183Z,98412.79
2018-10-16T20:15:06.356Z,98410.80
2018-10-16T20:17:37.219Z,98408.81
2018-10-16T20:20:09.299Z,98410.08
2018-10-16T20:22:39.925Z,98408.31
2018-10-16T20:25:11.086Z,98406.15
2018-10-16T20:27:41.869Z,98405.32
2018-10-16T20:30:12.988Z,98401.58
2018-10-16T20:32:43.609Z,98408.27
2018-10-16T20:35:14.440Z,98407.08
2018-10-16T20:37:45.068Z,98407.08
2018-10-16T20:40:15.696Z,98408.78
2018-10-16T20:42:46.295Z,98406.41
2018-10-16T20:45:16.939Z,98411.09
2018-10-16T20:47:47.857Z,98407.03
2018-10-16T20:50:21.735Z,98403.70
2018-10-16T20:52:52.324Z,98400.51
2018-10-16T20:55:22.915Z,98401.70
2018-10-16T20:57:53.632Z,98406.14
2018-10-16T21:00:24.684Z,98407.34
2018-10-16T21:02:55.295Z,98403.41
2018-10-16T21:05:26.098Z,98403.79
2018-10-16T21:07:56.784Z,98404.32
2018-10-16T21:10:27.395Z,98407.50
2018-10-16T21:12:58.011Z,98402.48
2018-10-16T21:15:28.799Z,98406.22
2018-10-16T21:17:59.871Z,98393.59
2018-10-16T21:20:30.472Z,98397.53
2018-10-16T21:23:00.828Z,98393.02
2018-10-16T21:25:31.628Z,98400.65
2018-10-16T21:28:02.286Z,98397.45
2018-10-16T21:30:33.068Z,98402.70
2018-10-16T21:33:03.696Z,98397.36
2018-10-16T21:35:34.284Z,98405.23
2018-10-16T21:38:04.891Z,98400.96
2018-10-16T21:40:35.718Z,98396.20
2018-10-16T21:43:06.568Z,98396.90
2018-10-16T21:45:37.410Z,98398.81
2018-10-16T21:48:08.220Z,98401.80
2018-10-16T21:50:38.843Z,98403.35
2018-10-16T21:53:09.482Z,98399.07
2018-10-16T21:55:40.286Z,98401.72
2018-10-16T21:58:11.316Z,98407.42
2018-10-16T22:00:47.215Z,98410.77
2018-10-16T22:03:17.803Z,98414.46
2018-10-16T22:05:48.651Z,98407.20
2018-10-16T22:08:19.395Z,98410.88
2018-10-16T22:10:50.288Z,98411.86
2018-10-16T22:13:20.859Z,98414.59
2018-10-16T22:15:51.483Z,98416.14
2018-10-16T22:18:22.061Z,98415.07
2018-10-16T22:20:52.687Z,98403.57
2018-10-16T22:23:23.302Z,98408.56
2018-10-16T22:25:54.106Z,98406.17
2018-10-16T22:28:24.703Z,98409.74
2018-10-16T22:30:55.335Z,98404.38
2018-10-16T22:33:26.140Z,98409.23
2018-10-16T22:35:56.534Z,98412.79
2018-10-16T22:38:27.129Z,98409.88
2018-10-16T22:40:57.754Z,98410.86
2018-10-16T22:43:28.667Z,98413.10
2018-10-16T22:45:59.237Z,98412.73
2018-10-16T22:48:29.892Z,98409.40
2018-10-16T22:51:00.510Z,98412.73
2018-10-16T22:53:31.104Z,98415.92
2018-10-16T22:56:01.701Z,98416.11
2018-10-16T22:58:32.368Z,98417.75
2018-10-16T23:01:03.374Z,98422.42
2018-10-16T23:03:34.379Z,98424.41
2018-10-16T23:06:05.525Z,98427.96
2018-10-16T23:08:36.130Z,98423.55
2018-10-16T23:11:06.878Z,98426.66
2018-10-16T23:13:37.656Z,98422.46
2018-10-16T23:16:08.577Z,98421.05
2018-10-16T23:18:39.199Z,98425.79
2018-10-16T23:21:11.515Z,98423.35
2018-10-16T23:23:42.115Z,98421.31
2018-10-16T23:26:12.735Z,98422.84
2018-10-16T23:28:43.299Z,98419.88
2018-10-16T23:31:13.954Z,98422.00
2018-10-16T23:33:44.717Z,98427.56
2018-10-16T23:36:15.863Z,98419.33
2018-10-16T23:38:46.439Z,98415.95
2018-10-16T23:41:17.060Z,98421.19
2018-10-16T23:43:47.823Z,98422.87
2018-10-16T23:46:18.430Z,98418.95
2018-10-16T23:48:49.004Z,98421.19
2018-10-16T23:51:19.631Z,98418.58
2018-10-16T23:53:50.202Z,98419.88
2018-10-16T23:56:21.034Z,98424.77
2018-10-16T23:58:51.721Z,98421.56
